createdAt,value
2022-10-11T00:06:44.529Z,1.00
2022-10-11T00:14:18.094Z,1.20
2022-10-11T00:21:53.525Z,1.05
2022-10-11T00:29:27.233Z,1.20
2022-10-11T00:37:02.309Z,1.58
2022-10-11T00:52:17.117Z,0.82
2022-10-11T00:59:53.371Z,0.85
2022-10-11T01:07:31.315Z,1.30
2022-10-11T01:15:14.999Z,1.10
2022-10-11T01:23:26.920Z,0.90
2022-10-11T01:31:11.012Z,1.30
2022-10-11T01:38:51.123Z,1.10
2022-10-11T01:46:27.227Z,1.08
2022-10-11T01:54:11.992Z,1.10
2022-10-11T02:01:57.403Z,2.77
2022-10-11T02:17:14.942Z,1.33
2022-10-11T02:24:52.959Z,0.90
2022-10-11T02:32:31.203Z,1.33
2022-10-11T02:40:12.108Z,1.25
2022-10-11T02:47:47.992Z,1.33
2022-10-11T02:55:21.919Z,1.00
2022-10-11T03:02:56.865Z,2.25
2022-10-11T03:18:05.442Z,1.38
2022-10-11T03:25:39.615Z,1.60
2022-10-11T03:33:14.643Z,1.13
2022-10-11T03:48:23.433Z,1.88
2022-10-11T03:55:57.685Z,2.00
2022-10-11T04:03:32.712Z,1.63
2022-10-11T04:18:41.241Z,1.73
2022-10-11T04:26:14.965Z,1.83
2022-10-11T04:33:50.081Z,2.50
2022-10-11T04:41:23.689Z,2.28
2022-10-11T04:48:59.523Z,2.60
2022-10-11T04:56:33.534Z,3.33
2022-10-11T05:04:08.938Z,1.90
2022-10-11T05:11:42.580Z,1.85
2022-10-11T05:19:17.883Z,2.70
2022-10-11T05:26:51.557Z,2.15
2022-10-11T05:34:26.617Z,2.65
2022-10-11T05:42:00.275Z,2.60
2022-10-11T05:49:35.288Z,2.90
2022-10-11T05:57:08.907Z,2.20
2022-10-11T06:04:43.980Z,2.70
2022-10-11T06:12:17.834Z,2.85
2022-10-11T06:19:52.866Z,2.78
2022-10-11T06:27:26.764Z,3.47
2022-10-11T06:35:03.348Z,2.67
2022-10-11T06:42:36.954Z,2.83
2022-10-11T06:50:13.290Z,2.70
2022-10-11T06:57:46.909Z,3.20
2022-10-11T07:05:21.972Z,2.72
2022-10-11T07:12:55.608Z,2.78
2022-10-11T07:20:30.685Z,3.95
2022-10-11T07:28:04.664Z,4.22
2022-10-11T07:35:39.668Z,3.37
2022-10-11T07:50:49.699Z,2.80
2022-10-11T07:58:23.319Z,2.80
2022-10-11T08:06:03.041Z,2.63
2022-10-11T08:13:37.088Z,2.45
2022-10-11T08:21:13.967Z,3.03
2022-10-11T08:28:47.677Z,2.47
2022-10-11T08:36:22.933Z,1.73
2022-10-11T08:44:18.684Z,2.25
2022-10-11T08:59:41.461Z,2.70
2022-10-11T09:07:22.866Z,1.63
2022-10-11T09:15:10.897Z,2.67
2022-10-11T09:22:54.155Z,1.60
2022-10-11T09:30:27.877Z,2.25
2022-10-11T09:38:07.728Z,2.25
2022-10-11T09:45:49.217Z,1.58
2022-10-11T09:53:57.473Z,1.90
2022-10-11T10:01:33.518Z,1.33
2022-10-11T10:09:26.894Z,1.77
2022-10-11T10:17:03.641Z,1.95
2022-10-11T10:24:42.233Z,1.33
2022-10-11T10:32:26.275Z,1.40
2022-10-11T10:40:06.959Z,1.73
2022-10-11T10:48:00.438Z,1.27
2022-10-11T10:55:41.378Z,1.17
2022-10-11T11:03:23.332Z,1.33
2022-10-11T11:11:04.896Z,1.98
2022-10-11T11:18:46.878Z,1.33
2022-10-11T11:26:31.051Z,1.80
2022-10-11T11:34:14.131Z,1.05
2022-10-11T11:41:54.499Z,1.50
2022-10-11T11:49:35.440Z,1.45
2022-10-11T11:57:19.207Z,0.98
2022-10-11T12:04:53.939Z,1.25
2022-10-11T12:12:34.224Z,0.90
2022-10-11T12:20:15.915Z,1.65
2022-10-11T12:27:53.560Z,1.58
2022-10-11T12:36:07.277Z,1.35
2022-10-11T12:44:20.517Z,1.13
2022-10-11T12:52:01.405Z,0.90
2022-10-11T12:59:46.528Z,1.50
2022-10-11T13:07:23.671Z,0.98
2022-10-11T13:15:04.295Z,1.17
2022-10-11T13:22:41.013Z,0.80
2022-10-11T13:30:20.120Z,0.98
2022-10-11T13:37:53.931Z,1.20
2022-10-11T13:45:30.683Z,0.95
2022-10-11T13:53:22.710Z,0.80
2022-10-11T14:00:59.734Z,1.42
2022-10-11T14:08:38.992Z,1.25
2022-10-11T14:16:28.822Z,1.20
2022-10-11T14:24:06.086Z,0.80
2022-10-11T14:31:42.338Z,1.45
2022-10-11T14:39:18.220Z,1.20
2022-10-11T14:46:54.933Z,1.08
2022-10-11T14:54:30.203Z,1.15
2022-10-11T15:09:39.968Z,0.88
2022-10-11T15:17:14.883Z,0.65
2022-10-11T15:24:51.688Z,1.83
2022-10-11T15:32:27.055Z,1.00
2022-10-11T15:47:40.651Z,0.93
2022-10-11T15:55:14.321Z,1.40
2022-10-11T16:02:49.264Z,0.93
2022-10-11T16:10:22.966Z,1.23
2022-10-11T16:17:58.169Z,4.63
2022-10-11T16:25:31.858Z,3.35
2022-10-11T16:33:07.053Z,3.17
2022-10-11T16:40:42.267Z,3.08
2022-10-11T16:48:17.261Z,3.47
2022-10-11T16:55:50.947Z,5.68
2022-10-11T17:03:26.431Z,12.75
2022-10-11T17:11:00.362Z,10.35
2022-10-11T17:18:35.599Z,14.30
2022-10-11T17:26:12.012Z,13.02
2022-10-11T17:33:47.182Z,12.05
2022-10-11T17:49:07.098Z,14.88
2022-10-11T17:56:42.609Z,12.95
2022-10-11T18:04:20.051Z,9.60
2022-10-11T18:11:54.105Z,8.00
2022-10-11T18:19:29.095Z,7.10
2022-10-11T18:27:02.980Z,6.20
2022-10-11T18:34:37.910Z,5.35
2022-10-11T18:42:11.504Z,7.63
2022-10-11T18:49:46.548Z,10.02
2022-10-11T19:04:55.877Z,11.50
2022-10-11T19:12:29.542Z,8.48
2022-10-11T19:20:06.291Z,7.97
2022-10-11T19:27:40.156Z,10.02
2022-10-11T19:35:19.674Z,10.27
2022-10-11T19:42:53.867Z,9.32
2022-10-11T19:50:29.011Z,9.82
2022-10-11T19:58:08.054Z,9.02
2022-10-11T20:05:43.665Z,8.00
2022-10-11T20:13:17.270Z,9.13
2022-10-11T20:20:56.252Z,9.98
2022-10-11T20:28:31.737Z,12.63
2022-10-11T20:36:09.832Z,10.68
2022-10-11T20:43:44.411Z,11.07
2022-10-11T20:51:20.330Z,11.60
2022-10-11T20:58:55.588Z,12.48
2022-10-11T21:06:32.471Z,10.48
2022-10-11T21:14:07.339Z,8.95
2022-10-11T21:29:16.202Z,11.85
2022-10-11T21:36:51.658Z,10.40
2022-10-11T21:44:25.428Z,8.98
2022-10-11T21:52:00.331Z,8.77
2022-10-11T22:07:09.067Z,10.55
2022-10-11T22:14:43.018Z,9.30
2022-10-11T22:22:18.374Z,10.73
2022-10-11T22:29:52.166Z,10.50
2022-10-11T22:37:27.306Z,10.15
2022-10-11T22:45:00.855Z,10.57
2022-10-11T22:52:36.001Z,9.27
2022-10-11T23:00:10.839Z,10.40
2022-10-11T23:15:20.557Z,12.07
2022-10-11T23:22:55.726Z,11.23
2022-10-11T23:30:30.034Z,11.82
2022-10-11T23:38:05.033Z,12.30
2022-10-11T23:45:38.820Z,12.23
2022-10-11T23:53:14.327Z,11.73
